createdAt,value
2018-11-10T00:01:50.993Z,88.42
2018-11-10T00:04:54.452Z,89.03
2018-11-10T00:07:58.093Z,89.23
2018-11-10T00:11:01.444Z,89.49
2018-11-10T00:14:05.247Z,89.55
2018-11-10T00:17:08.989Z,89.01
2018-11-10T00:20:12.691Z,89.77
2018-11-10T00:23:16.204Z,89.54
2018-11-10T00:26:19.831Z,89.61
2018-11-10T00:29:23.288Z,89.88
2018-11-10T00:32:26.837Z,90.12
2018-11-10T00:35:30.379Z,89.62
2018-11-10T00:38:33.862Z,90.02
2018-11-10T00:41:37.342Z,90.08
2018-11-10T00:44:40.825Z,90.09
2018-11-10T00:47:44.368Z,89.56
2018-11-10T00:50:47.806Z,89.94
2018-11-10T00:53:51.333Z,89.52
2018-11-10T00:56:54.848Z,89.74
2018-11-10T00:59:58.298Z,89.91
2018-11-10T01:03:01.729Z,89.67
2018-11-10T01:06:05.262Z,89.54
2018-11-10T01:09:09.551Z,89.55
2018-11-10T01:12:13.059Z,89.79
2018-11-10T01:15:16.961Z,89.42
2018-11-10T01:18:20.439Z,89.51
2018-11-10T01:21:23.848Z,88.87
2018-11-10T01:24:27.305Z,88.69
2018-11-10T01:27:30.847Z,88.19
2018-11-10T01:30:34.406Z,87.99
2018-11-10T01:33:37.826Z,88.11
2018-11-10T01:36:41.275Z,88.15
2018-11-10T01:39:44.803Z,88.05
2018-11-10T01:42:48.462Z,88.27
2018-11-10T01:45:52.031Z,87.70
2018-11-10T01:48:55.510Z,87.57
2018-11-10T01:51:58.993Z,87.81
2018-11-10T01:55:02.467Z,87.70
2018-11-10T01:58:06.987Z,87.71
2018-11-10T02:01:10.412Z,88.04
2018-11-10T02:04:13.891Z,88.14
2018-11-10T02:07:17.282Z,88.00
2018-11-10T02:10:20.683Z,87.72
2018-11-10T02:13:25.113Z,87.48
2018-11-10T02:16:28.507Z,87.67
2018-11-10T02:19:31.947Z,87.39
2018-11-10T02:22:35.478Z,87.43
2018-11-10T02:25:39.075Z,87.50
2018-11-10T02:28:42.602Z,87.05
2018-11-10T02:31:46.026Z,87.22
2018-11-10T02:34:49.772Z,87.37
2018-11-10T02:37:53.194Z,87.43
2018-11-10T02:40:56.648Z,87.54
2018-11-10T02:44:00.033Z,87.26
2018-11-10T02:47:03.613Z,86.99
2018-11-10T02:50:07.081Z,86.71
2018-11-10T02:53:10.540Z,86.68
2018-11-10T02:56:13.939Z,86.99
2018-11-10T02:59:17.402Z,86.89
2018-11-10T03:02:20.840Z,86.96
2018-11-10T03:05:24.264Z,86.69
2018-11-10T03:08:27.679Z,87.16
2018-11-10T03:11:31.087Z,86.96
2018-11-10T03:14:34.508Z,86.80
2018-11-10T03:17:38.024Z,87.03
2018-11-10T03:20:41.473Z,87.00
2018-11-10T03:23:44.871Z,87.34
2018-11-10T03:26:48.307Z,87.02
2018-11-10T03:29:51.781Z,86.85
2018-11-10T03:32:55.186Z,87.10
2018-11-10T03:35:58.556Z,87.07
2018-11-10T03:39:01.955Z,86.89
2018-11-10T03:42:05.557Z,86.52
2018-11-10T03:45:10.463Z,86.72
2018-11-10T03:48:13.935Z,86.72
2018-11-10T03:51:17.400Z,86.96
2018-11-10T03:54:20.854Z,86.79
2018-11-10T03:57:24.357Z,86.71
2018-11-10T04:00:27.807Z,86.90
2018-11-10T04:03:31.354Z,86.50
2018-11-10T04:06:34.924Z,86.96
2018-11-10T04:09:38.386Z,86.58
2018-11-10T04:12:41.952Z,86.87
2018-11-10T04:15:45.465Z,86.66
2018-11-10T04:18:48.918Z,86.93
2018-11-10T04:21:52.415Z,86.79
2018-11-10T04:24:55.982Z,86.79
2018-11-10T04:27:59.455Z,86.83
2018-11-10T04:31:02.946Z,86.77
2018-11-10T04:34:06.960Z,86.71
2018-11-10T04:37:10.498Z,86.68
2018-11-10T04:40:14.103Z,86.31
2018-11-10T04:43:17.616Z,86.54
2018-11-10T04:46:21.167Z,86.94
2018-11-10T04:49:24.768Z,87.03
2018-11-10T04:52:28.303Z,86.62
2018-11-10T04:55:31.937Z,86.40
2018-11-10T04:58:35.467Z,86.17
2018-11-10T05:01:38.985Z,86.42
2018-11-10T05:04:42.648Z,86.77
2018-11-10T05:07:46.152Z,88.05
2018-11-10T05:10:49.601Z,89.76
2018-11-10T05:13:53.156Z,89.26
2018-11-10T05:16:56.930Z,90.17
2018-11-10T05:20:01.051Z,90.20
2018-11-10T05:23:04.685Z,90.58
2018-11-10T05:26:08.301Z,90.62
2018-11-10T05:29:11.878Z,90.25
2018-11-10T05:32:16.398Z,90.91
2018-11-10T05:35:19.936Z,90.52
2018-11-10T05:38:23.397Z,90.52
2018-11-10T05:41:26.908Z,90.39
2018-11-10T05:44:30.452Z,90.52
2018-11-10T05:47:34.047Z,90.12
2018-11-10T05:50:37.480Z,90.70
2018-11-10T05:53:41.025Z,90.48
2018-11-10T05:56:44.621Z,90.05
2018-11-10T05:59:48.106Z,90.15
2018-11-10T06:02:51.625Z,90.51
2018-11-10T06:05:55.099Z,89.97
2018-11-10T06:08:58.645Z,89.98
2018-11-10T06:12:02.241Z,90.32
2018-11-10T06:15:07.196Z,90.30
2018-11-10T06:18:10.681Z,90.38
2018-11-10T06:21:14.196Z,90.89
2018-11-10T06:24:17.842Z,90.71
2018-11-10T06:27:21.416Z,90.71
2018-11-10T06:30:25.047Z,91.00
2018-11-10T06:33:28.544Z,90.54
2018-11-10T06:36:32.092Z,90.03
2018-11-10T06:39:35.649Z,90.04
2018-11-10T06:42:39.161Z,89.64
2018-11-10T06:45:42.735Z,89.97
2018-11-10T06:48:46.240Z,89.98
2018-11-10T06:51:49.944Z,89.68
2018-11-10T06:54:53.488Z,89.59
2018-11-10T06:57:57.089Z,89.41
2018-11-10T07:01:00.622Z,89.91
2018-11-10T07:04:04.769Z,89.24
2018-11-10T07:07:08.381Z,89.26
2018-11-10T07:10:11.951Z,89.46
2018-11-10T07:13:15.479Z,89.02
2018-11-10T07:16:18.977Z,88.91
2018-11-10T07:19:22.684Z,88.67
2018-11-10T07:22:26.160Z,88.81
2018-11-10T07:25:29.736Z,88.66
2018-11-10T07:28:33.268Z,87.96
2018-11-10T07:31:36.795Z,88.02
2018-11-10T07:34:40.293Z,87.23
2018-11-10T07:37:43.787Z,87.16
2018-11-10T07:40:47.287Z,87.35
2018-11-10T07:43:50.810Z,86.85
2018-11-10T07:46:54.207Z,87.14
2018-11-10T07:49:58.632Z,86.90
2018-11-10T07:53:02.094Z,86.55
2018-11-10T07:56:06.874Z,86.66
2018-11-10T07:59:10.337Z,86.65
2018-11-10T08:02:13.843Z,86.86
2018-11-10T08:05:17.684Z,86.71
2018-11-10T08:08:21.184Z,86.47
2018-11-10T08:11:24.662Z,86.35
2018-11-10T08:14:28.169Z,86.77
2018-11-10T08:17:31.686Z,86.27
2018-11-10T08:20:37.787Z,85.79
2018-11-10T08:23:41.341Z,85.60
2018-11-10T08:26:44.790Z,85.13
2018-11-10T08:29:48.206Z,85.63
2018-11-10T08:32:51.586Z,85.21
2018-11-10T08:35:54.977Z,85.41
2018-11-10T08:38:58.381Z,84.55
2018-11-10T08:42:02.247Z,84.74
2018-11-10T08:45:07.924Z,84.71
2018-11-10T08:48:12.556Z,84.25
2018-11-10T08:51:16.063Z,84.44
2018-11-10T08:54:19.584Z,84.87
2018-11-10T08:57:23.245Z,84.52
2018-11-10T09:00:26.796Z,84.82
2018-11-10T09:03:30.342Z,84.41
2018-11-10T09:06:33.840Z,84.29
2018-11-10T09:09:37.398Z,84.08
2018-11-10T09:12:40.895Z,83.68
2018-11-10T09:15:44.451Z,83.17
2018-11-10T09:18:47.893Z,82.91
2018-11-10T09:21:51.528Z,82.47
2018-11-10T09:24:55.069Z,82.40
2018-11-10T09:27:58.774Z,82.20
2018-11-10T09:31:02.307Z,82.06
2018-11-10T09:34:05.806Z,81.33
2018-11-10T09:37:09.430Z,80.95
2018-11-10T09:40:14.297Z,80.10
2018-11-10T09:43:17.801Z,79.38
2018-11-10T09:46:21.338Z,79.02
2018-11-10T09:49:25.068Z,79.10
2018-11-10T09:52:28.618Z,78.69
2018-11-10T09:55:32.248Z,78.56
2018-11-10T09:58:35.851Z,78.73
2018-11-10T10:01:39.735Z,78.47
2018-11-10T10:04:43.072Z,78.21
2018-11-10T10:07:46.812Z,78.49
2018-11-10T10:10:50.488Z,78.40
2018-11-10T10:13:53.982Z,77.78
2018-11-10T10:16:57.942Z,77.95
2018-11-10T10:20:01.542Z,77.43
2018-11-10T10:23:05.626Z,77.43
2018-11-10T10:26:10.260Z,77.64
2018-11-10T10:29:13.800Z,77.65
2018-11-10T10:32:17.363Z,77.36
2018-11-10T10:35:20.981Z,77.60
2018-11-10T10:38:24.374Z,77.47
2018-11-10T10:41:27.962Z,77.37
2018-11-10T10:44:31.402Z,76.96
2018-11-10T10:47:34.937Z,76.86
2018-11-10T10:50:38.412Z,76.43
2018-11-10T10:53:41.965Z,76.66
2018-11-10T10:56:45.476Z,76.76
2018-11-10T10:59:48.936Z,76.69
2018-11-10T11:02:57.889Z,76.97
2018-11-10T11:06:02.433Z,76.84
2018-11-10T11:09:07.031Z,76.51
2018-11-10T11:12:10.389Z,76.54
2018-11-10T11:15:13.889Z,76.50
2018-11-10T11:18:17.321Z,76.35
2018-11-10T11:21:23.803Z,76.21
2018-11-10T11:24:27.380Z,75.80
2018-11-10T11:27:30.878Z,75.90
2018-11-10T11:30:34.418Z,75.65
2018-11-10T11:33:37.921Z,75.98
2018-11-10T11:36:41.420Z,75.43
2018-11-10T11:39:46.074Z,75.46
2018-11-10T11:42:49.647Z,75.02
2018-11-10T11:45:53.180Z,75.31
2018-11-10T11:48:56.652Z,74.77
2018-11-10T11:52:00.168Z,74.60
2018-11-10T11:55:03.702Z,74.04
2018-11-10T11:58:07.348Z,74.56
2018-11-10T12:01:10.663Z,74.81
2018-11-10T12:04:14.191Z,74.28
2018-11-10T12:07:17.669Z,74.47
2018-11-10T12:10:21.163Z,73.97
2018-11-10T12:13:24.713Z,74.16
2018-11-10T12:16:28.591Z,73.89
2018-11-10T12:19:32.028Z,73.96
2018-11-10T12:22:35.744Z,73.67
2018-11-10T12:25:39.237Z,74.05
2018-11-10T12:28:42.738Z,73.78
2018-11-10T12:31:46.195Z,73.69
2018-11-10T12:34:49.691Z,73.99
2018-11-10T12:37:54.306Z,73.72
2018-11-10T12:40:57.849Z,73.98
2018-11-10T12:44:01.471Z,74.36
2018-11-10T12:47:05.343Z,74.92
2018-11-10T12:50:11.046Z,75.26
2018-11-10T12:53:14.505Z,75.71
2018-11-10T12:56:18.431Z,75.77
2018-11-10T12:59:21.961Z,75.67
2018-11-10T13:02:25.400Z,75.82
2018-11-10T13:05:29.130Z,75.54
2018-11-10T13:08:33.601Z,76.44
2018-11-10T13:11:37.676Z,77.38
2018-11-10T13:14:41.045Z,77.72
2018-11-10T13:17:45.492Z,78.27
2018-11-10T13:20:49.981Z,78.92
2018-11-10T13:23:53.570Z,78.99
2018-11-10T13:26:57.164Z,79.09
2018-11-10T13:30:01.660Z,78.31
2018-11-10T13:33:05.574Z,78.33
2018-11-10T13:36:09.106Z,78.57
2018-11-10T13:39:12.549Z,77.93
2018-11-10T13:42:15.992Z,77.39
2018-11-10T13:45:19.368Z,77.22
2018-11-10T13:48:22.779Z,76.88
2018-11-10T13:51:26.340Z,77.26
2018-11-10T13:54:29.633Z,76.95
2018-11-10T13:57:33.070Z,76.81
2018-11-10T14:00:36.573Z,76.47
2018-11-10T14:03:39.992Z,75.96
2018-11-10T14:06:43.349Z,75.79
2018-11-10T14:09:46.771Z,76.12
2018-11-10T14:12:50.282Z,76.32
2018-11-10T14:15:53.710Z,75.52
2018-11-10T14:18:57.189Z,75.13
2018-11-10T14:22:00.612Z,74.67
2018-11-10T14:25:04.422Z,74.68
2018-11-10T14:28:07.901Z,75.22
2018-11-10T14:31:11.368Z,74.97
2018-11-10T14:34:14.834Z,74.75
2018-11-10T14:37:18.322Z,75.04
2018-11-10T14:40:21.715Z,75.11
2018-11-10T14:43:25.278Z,74.99
2018-11-10T14:46:28.812Z,75.17
2018-11-10T14:49:32.368Z,75.17
2018-11-10T14:52:35.936Z,75.03
2018-11-10T14:55:39.541Z,74.92
2018-11-10T14:58:43.256Z,75.22
2018-11-10T15:01:46.817Z,75.34
2018-11-10T15:04:50.380Z,75.11
2018-11-10T15:07:53.905Z,74.84
2018-11-10T15:10:58.358Z,74.74
2018-11-10T15:14:01.947Z,74.86
2018-11-10T15:17:06.121Z,74.95
2018-11-10T15:20:11.343Z,75.18
2018-11-10T15:23:14.898Z,74.41
2018-11-10T15:26:18.433Z,74.75
2018-11-10T15:29:21.929Z,75.06
2018-11-10T15:32:25.483Z,75.12
2018-11-10T15:35:28.978Z,75.07
2018-11-10T15:38:33.408Z,75.68
2018-11-10T15:41:36.947Z,75.92
2018-11-10T15:44:40.531Z,75.94
2018-11-10T15:47:45.444Z,75.96
2018-11-10T15:50:48.947Z,75.66
2018-11-10T15:53:52.486Z,76.42
2018-11-10T15:56:56.097Z,76.28
2018-11-10T15:59:59.614Z,76.43
2018-11-10T16:03:03.282Z,76.48
2018-11-10T16:06:06.841Z,76.32
2018-11-10T16:09:11.918Z,76.43
2018-11-10T16:12:15.517Z,76.66
2018-11-10T16:15:19.037Z,76.83
2018-11-10T16:18:22.963Z,76.90
2018-11-10T16:21:26.501Z,76.87
2018-11-10T16:24:30.353Z,76.86
2018-11-10T16:27:33.801Z,77.07
2018-11-10T16:30:37.363Z,77.40
2018-11-10T16:33:40.930Z,77.32
2018-11-10T16:36:44.467Z,77.48
2018-11-10T16:39:50.077Z,77.61
2018-11-10T16:42:53.582Z,77.58
2018-11-10T16:45:57.104Z,77.83
2018-11-10T16:49:00.847Z,77.87
2018-11-10T16:52:04.280Z,78.13
2018-11-10T16:55:08.375Z,78.23
2018-11-10T16:58:12.227Z,78.47
2018-11-10T17:01:15.694Z,78.67
2018-11-10T17:04:19.387Z,78.82
2018-11-10T17:07:23.157Z,78.96
2018-11-10T17:10:26.629Z,79.34
2018-11-10T17:13:30.179Z,79.50
2018-11-10T17:16:33.664Z,79.30
2018-11-10T17:19:37.126Z,79.26
2018-11-10T17:22:40.733Z,79.49
2018-11-10T17:25:44.139Z,79.55
2018-11-10T17:28:47.637Z,79.45
2018-11-10T17:31:52.096Z,79.40
2018-11-10T17:34:55.542Z,79.72
2018-11-10T17:37:59.119Z,80.07
2018-11-10T17:41:02.563Z,80.09
2018-11-10T17:44:06.797Z,80.34
2018-11-10T17:47:10.267Z,80.55
2018-11-10T17:50:15.074Z,80.96
2018-11-10T17:53:18.591Z,80.84
2018-11-10T17:56:22.012Z,80.83
2018-11-10T17:59:25.756Z,81.57
2018-11-10T18:02:29.252Z,82.64
2018-11-10T18:05:32.785Z,82.85
2018-11-10T18:08:36.358Z,84.49
2018-11-10T18:11:40.206Z,84.50
2018-11-10T18:14:43.668Z,85.62
2018-11-10T18:17:47.171Z,85.79
2018-11-10T18:20:50.729Z,86.57
2018-11-10T18:23:54.148Z,86.62
2018-11-10T18:26:57.557Z,86.80
2018-11-10T18:30:00.959Z,87.07
2018-11-10T18:33:04.446Z,87.15
2018-11-10T18:36:07.870Z,87.42
2018-11-10T18:39:11.412Z,87.71
2018-11-10T18:42:14.862Z,87.78
2018-11-10T18:45:18.316Z,88.58
2018-11-10T18:48:21.859Z,88.93
2018-11-10T18:51:25.317Z,89.10
2018-11-10T18:54:28.767Z,89.31
2018-11-10T18:57:32.428Z,88.95
2018-11-10T19:00:35.820Z,89.58
2018-11-10T19:03:39.328Z,89.81
2018-11-10T19:06:42.771Z,89.96
2018-11-10T19:09:46.163Z,91.27
2018-11-10T19:12:49.678Z,91.44
2018-11-10T19:15:53.173Z,91.63
2018-11-10T19:18:56.580Z,92.11
2018-11-10T19:22:00.001Z,92.74
2018-11-10T19:25:03.606Z,92.88
2018-11-10T19:28:07.074Z,93.08
2018-11-10T19:31:10.504Z,94.02
2018-11-10T19:34:14.165Z,94.72
2018-11-10T19:37:17.576Z,94.88
2018-11-10T19:40:20.987Z,96.04
2018-11-10T19:43:24.497Z,95.40
2018-11-10T19:46:27.907Z,95.89
2018-11-10T19:49:31.290Z,95.98
2018-11-10T19:52:34.678Z,96.20
2018-11-10T19:55:38.075Z,96.13
2018-11-10T19:58:41.526Z,96.48
2018-11-10T20:01:45.019Z,96.86
2018-11-10T20:04:48.498Z,97.78
2018-11-10T20:07:51.869Z,98.67
2018-11-10T20:10:55.555Z,98.61
2018-11-10T20:13:59.138Z,98.23
2018-11-10T20:17:02.595Z,97.85
2018-11-10T20:20:07.017Z,98.69
2018-11-10T20:23:10.401Z,98.81
2018-11-10T20:26:13.831Z,98.91
2018-11-10T20:29:17.228Z,99.16
2018-11-10T20:32:20.627Z,99.47
2018-11-10T20:35:24.049Z,99.90
2018-11-10T20:38:27.415Z,99.68
2018-11-10T20:41:30.816Z,99.72
2018-11-10T20:44:34.288Z,98.83
2018-11-10T20:47:38.011Z,99.34
2018-11-10T20:50:41.500Z,99.31
2018-11-10T20:53:44.927Z,99.50
2018-11-10T20:56:49.350Z,99.36
2018-11-10T20:59:52.854Z,98.13
2018-11-10T21:02:56.267Z,98.32
2018-11-10T21:05:59.906Z,98.27
2018-11-10T21:09:03.495Z,97.46
2018-11-10T21:12:06.889Z,97.42
2018-11-10T21:15:10.909Z,97.65
2018-11-10T21:18:14.431Z,98.22
2018-11-10T21:21:17.850Z,98.64
2018-11-10T21:24:21.575Z,98.98
2018-11-10T21:27:25.109Z,100.00
2018-11-10T21:30:28.628Z,99.47
2018-11-10T21:33:32.181Z,98.98
2018-11-10T21:36:35.598Z,99.05
2018-11-10T21:39:39.279Z,99.06
2018-11-10T21:42:43.157Z,98.58
2018-11-10T21:45:46.620Z,99.09
2018-11-10T21:48:50.130Z,99.35
2018-11-10T21:51:53.759Z,99.03
2018-11-10T21:54:57.297Z,98.91
2018-11-10T21:58:00.800Z,99.12
2018-11-10T22:01:04.311Z,99.05
2018-11-10T22:04:07.737Z,98.36
2018-11-10T22:07:11.271Z,98.31
2018-11-10T22:10:15.935Z,98.02
2018-11-10T22:13:19.392Z,97.47
2018-11-10T22:16:22.911Z,96.92
2018-11-10T22:19:26.392Z,96.93
2018-11-10T22:22:29.970Z,96.69
2018-11-10T22:25:33.394Z,96.82
2018-11-10T22:28:36.980Z,97.15
2018-11-10T22:31:40.479Z,98.60
2018-11-10T22:34:48.336Z,96.63
2018-11-10T22:37:51.970Z,97.11
2018-11-10T22:40:55.503Z,97.28
2018-11-10T22:43:59.017Z,98.41
2018-11-10T22:47:02.502Z,97.50
2018-11-10T22:50:08.427Z,96.96
2018-11-10T22:53:11.962Z,96.36
2018-11-10T22:56:15.510Z,95.83
2018-11-10T22:59:18.985Z,96.18
2018-11-10T23:02:22.539Z,96.32
2018-11-10T23:05:26.348Z,96.86
2018-11-10T23:08:29.821Z,97.51
2018-11-10T23:11:33.289Z,98.25
2018-11-10T23:14:36.804Z,98.68
2018-11-10T23:17:40.642Z,99.68
2018-11-10T23:20:44.101Z,100.00
2018-11-10T23:23:47.590Z,100.00
2018-11-10T23:26:51.092Z,100.00
2018-11-10T23:29:54.571Z,100.00
2018-11-10T23:32:58.193Z,100.00
2018-11-10T23:36:01.608Z,100.00
2018-11-10T23:39:09.144Z,100.00
2018-11-10T23:42:12.612Z,100.00
2018-11-10T23:45:16.462Z,100.00
2018-11-10T23:48:20.019Z,100.00
2018-11-10T23:51:23.440Z,100.00
2018-11-10T23:54:26.897Z,100.00
2018-11-10T23:57:30.357Z,100.00
